sensor_id;sensor_type;location;lat;lon;timestamp;pressure;altitude;pressure_sealevel;temperature;humidity
45253;BME280;63171;50.520;30.486;2024-02-15T00:00:27;100573.16;;;5.37;100.00
45253;BME280;63171;50.520;30.486;2024-02-15T00:01:18;100585.41;;;5.32;100.00
45253;BME280;63171;50.520;30.486;2024-02-15T00:02:09;100576.69;;;5.33;100.00
45253;BME280;63171;50.520;30.486;2024-02-15T00:02:58;100574.16;;;5.31;100.00
45253;BME280;63171;50.520;30.486;2024-02-15T00:03:49;100579.34;;;5.31;100.00
45253;BME280;63171;50.520;30.486;2024-02-15T00:04:39;100577.66;;;5.30;100.00
45253;BME280;63171;50.520;30.486;2024-02-15T00:05:30;100587.94;;;5.33;100.00
45253;BME280;63171;50.520;30.486;2024-02-15T00:06:20;100579.78;;;5.46;100.00
45253;BME280;63171;50.520;30.486;2024-02-15T00:07:10;100578.72;;;5.53;100.00
45253;BME280;63171;50.520;30.486;2024-02-15T00:08:00;100586.63;;;5.50;100.00
45253;BME280;63171;50.520;30.486;2024-02-15T00:08:51;100577.97;;;5.49;100.00
45253;BME280;63171;50.520;30.486;2024-02-15T00:09:41;100585.78;;;5.49;100.00
45253;BME280;63171;50.520;30.486;2024-02-15T00:10:31;100579.69;;;5.50;100.00
45253;BME280;63171;50.520;30.486;2024-02-15T00:11:23;100586.53;;;5.53;100.00
45253;BME280;63171;50.520;30.486;2024-02-15T00:12:13;100585.00;;;5.46;100.00
45253;BME280;63171;50.520;30.486;2024-02-15T00:13:03;100588.41;;;5.48;100.00
45253;BME280;63171;50.520;30.486;2024-02-15T00:13:56;100579.94;;;5.41;100.00
45253;BME280;63171;50.520;30.486;2024-02-15T00:14:46;100581.78;;;5.38;100.00
45253;BME280;63171;50.520;30.486;2024-02-15T00:15:36;100585.97;;;5.42;100.00
45253;BME280;63171;50.520;30.486;2024-02-15T00:16:27;100585.09;;;5.43;100.00
45253;BME280;63171;50.520;30.486;2024-02-15T00:17:18;100588.41;;;5.48;100.00
45253;BME280;63171;50.520;30.486;2024-02-15T00:18:07;100581.53;;;5.45;100.00
45253;BME280;63171;50.520;30.486;2024-02-15T00:18:59;100581.50;;;5.47;100.00
45253;BME280;63171;50.520;30.486;2024-02-15T00:19:49;100584.94;;;5.47;100.00
45253;BME280;63171;50.520;30.486;2024-02-15T00:20:39;100591.66;;;5.54;100.00
45253;BME280;63171;50.520;30.486;2024-02-15T00:21:30;100595.97;;;5.55;100.00
45253;BME280;63171;50.520;30.486;2024-02-15T00:22:19;100586.47;;;5.54;100.00
45253;BME280;63171;50.520;30.486;2024-02-15T00:23:11;100594.22;;;5.56;100.00
45253;BME280;63171;50.520;30.486;2024-02-15T00:24:01;100590.91;;;5.51;100.00
45253;BME280;63171;50.520;30.486;2024-02-15T00:24:51;100590.88;;;5.52;100.00
45253;BME280;63171;50.520;30.486;2024-02-15T00:25:41;100584.88;;;5.50;100.00
45253;BME280;63171;50.520;30.486;2024-02-15T00:26:34;100591.88;;;5.48;100.00
45253;BME280;63171;50.520;30.486;2024-02-15T00:27:24;100587.53;;;5.49;100.00
45253;BME280;63171;50.520;30.486;2024-02-15T00:28:13;100586.56;;;5.51;100.00
45253;BME280;63171;50.520;30.486;2024-02-15T00:29:04;100594.31;;;5.53;100.00
45253;BME280;63171;50.520;30.486;2024-02-15T00:29:54;100588.28;;;5.52;100.00
45253;BME280;63171;50.520;30.486;2024-02-15T00:30:44;100591.78;;;5.51;100.00
45253;BME280;63171;50.520;30.486;2024-02-15T00:31:36;100588.91;;;5.59;100.00
45253;BME280;63171;50.520;30.486;2024-02-15T00:32:27;100591.41;;;5.63;100.00
45253;BME280;63171;50.520;30.486;2024-02-15T00:33:16;100595.75;;;5.63;100.00
45253;BME280;63171;50.520;30.486;2024-02-15T00:34:07;100591.78;;;5.51;100.00
45253;BME280;63171;50.520;30.486;2024-02-15T00:34:57;100598.75;;;5.49;100.00
45253;BME280;63171;50.520;30.486;2024-02-15T00:35:47;100596.00;;;5.54;100.00
45253;BME280;63171;50.520;30.486;2024-02-15T00:36:42;100595.16;;;5.53;100.00
45253;BME280;63171;50.520;30.486;2024-02-15T00:37:32;100591.19;;;5.42;100.00
45253;BME280;63171;50.520;30.486;2024-02-15T00:38:22;100593.88;;;5.39;100.00
45253;BME280;63171;50.520;30.486;2024-02-15T00:39:13;100596.28;;;5.45;100.00
45253;BME280;63171;50.520;30.486;2024-02-15T00:40:03;100598.63;;;5.54;100.00
45253;BME280;63171;50.520;30.486;2024-02-15T00:40:53;100594.97;;;5.59;100.00
45253;BME280;63171;50.520;30.486;2024-02-15T00:41:44;100600.94;;;5.63;100.00
45253;BME280;63171;50.520;30.486;2024-02-15T00:42:34;100597.44;;;5.64;100.00
45253;BME280;63171;50.520;30.486;2024-02-15T00:43:24;100603.66;;;5.58;100.00
45253;BME280;63171;50.520;30.486;2024-02-15T00:44:15;100600.25;;;5.56;100.00
45253;BME280;63171;50.520;30.486;2024-02-15T00:45:05;100596.91;;;5.53;100.00
45253;BME280;63171;50.520;30.486;2024-02-15T00:45:57;100599.38;;;5.57;100.00
45253;BME280;63171;50.520;30.486;2024-02-15T00:46:48;100607.00;;;5.63;100.00
45253;BME280;63171;50.520;30.486;2024-02-15T00:47:39;100598.94;;;5.71;100.00
45253;BME280;63171;50.520;30.486;2024-02-15T00:48:31;100607.53;;;5.75;100.00
45253;BME280;63171;50.520;30.486;2024-02-15T00:49:21;100608.38;;;5.74;100.00
45253;BME280;63171;50.520;30.486;2024-02-15T00:50:11;100602.28;;;5.76;100.00
45253;BME280;63171;50.520;30.486;2024-02-15T00:51:03;100604.03;;;5.76;100.00
45253;BME280;63171;50.520;30.486;2024-02-15T00:51:53;100606.63;;;5.76;100.00
45253;BME280;63171;50.520;30.486;2024-02-15T00:52:43;100604.88;;;5.76;100.00
45253;BME280;63171;50.520;30.486;2024-02-15T00:53:34;100608.63;;;5.66;100.00
45253;BME280;63171;50.520;30.486;2024-02-15T00:54:24;100606.09;;;5.64;100.00
45253;BME280;63171;50.520;30.486;2024-02-15T00:55:14;100607.03;;;5.62;100.00
45253;BME280;63171;50.520;30.486;2024-02-15T00:56:05;100616.59;;;5.60;100.00
45253;BME280;63171;50.520;30.486;2024-02-15T00:56:55;100612.25;;;5.60;100.00
45253;BME280;63171;50.520;30.486;2024-02-15T00:57:45;100607.84;;;5.64;100.00
45253;BME280;63171;50.520;30.486;2024-02-15T00:58:35;100603.41;;;5.68;100.00
45253;BME280;63171;50.520;30.486;2024-02-15T00:59:25;100610.59;;;5.58;100.00
45253;BME280;63171;50.520;30.486;2024-02-15T01:00:15;100613.34;;;5.53;100.00
45253;BME280;63171;50.520;30.486;2024-02-15T01:03:36;100607.34;;;5.51;100.00
45253;BME280;63171;50.520;30.486;2024-02-15T01:04:28;100609.66;;;5.60;100.00
45253;BME280;63171;50.520;30.486;2024-02-15T01:05:18;100613.25;;;5.56;100.00
45253;BME280;63171;50.520;30.486;2024-02-15T01:06:08;100610.66;;;5.56;100.00
45253;BME280;63171;50.520;30.486;2024-02-15T01:06:58;100606.34;;;5.55;100.00
45253;BME280;63171;50.520;30.486;2024-02-15T01:07:48;100610.13;;;5.45;100.00
45253;BME280;63171;50.520;30.486;2024-02-15T01:08:39;100611.69;;;5.51;100.00
45253;BME280;63171;50.520;30.486;2024-02-15T01:09:29;100607.88;;;5.62;100.00
45253;BME280;63171;50.520;30.486;2024-02-15T01:10:18;100607.25;;;5.54;100.00
45253;BME280;63171;50.520;30.486;2024-02-15T01:11:10;100609.81;;;5.56;100.00
45253;BME280;63171;50.520;30.486;2024-02-15T01:11:59;100609.63;;;5.62;100.00
45253;BME280;63171;50.520;30.486;2024-02-15T01:12:51;100605.19;;;5.66;100.00
45253;BME280;63171;50.520;30.486;2024-02-15T01:13:41;100605.00;;;5.72;100.00
45253;BME280;63171;50.520;30.486;2024-02-15T01:14:31;100609.34;;;5.71;100.00
45253;BME280;63171;50.520;30.486;2024-02-15T01:15:22;100604.19;;;5.70;100.00
45253;BME280;63171;50.520;30.486;2024-02-15T01:16:12;100610.06;;;5.76;100.00
45253;BME280;63171;50.520;30.486;2024-02-15T01:17:01;100617.03;;;5.74;100.00
45253;BME280;63171;50.520;30.486;2024-02-15T01:17:52;100611.84;;;5.74;100.00
45253;BME280;63171;50.520;30.486;2024-02-15T01:18:43;100612.66;;;5.76;100.00
45253;BME280;63171;50.520;30.486;2024-02-15T01:19:33;100613.00;;;5.66;100.00
45253;BME280;63171;50.520;30.486;2024-02-15T01:20:24;100613.13;;;5.61;100.00
45253;BME280;63171;50.520;30.486;2024-02-15T01:21:14;100612.13;;;5.65;100.00
45253;BME280;63171;50.520;30.486;2024-02-15T01:22:05;100607.63;;;5.70;100.00
45253;BME280;63171;50.520;30.486;2024-02-15T01:22:55;100608.59;;;5.68;100.00
45253;BME280;63171;50.520;30.486;2024-02-15T01:23:45;100612.94;;;5.67;100.00
45253;BME280;63171;50.520;30.486;2024-02-15T01:24:36;100611.94;;;5.71;100.00
45253;BME280;63171;50.520;30.486;2024-02-15T01:25:26;100613.47;;;5.78;100.00
45253;BME280;63171;50.520;30.486;2024-02-15T01:26:17;100622.88;;;5.82;100.00
45253;BME280;63171;50.520;30.486;2024-02-15T01:27:08;100618.47;;;5.84;100.00
45253;BME280;63171;50.520;30.486;2024-02-15T01:27:59;100614.22;;;5.82;100.00
45253;BME280;63171;50.520;30.486;2024-02-15T01:28:51;100614.06;;;5.86;100.00
45253;BME280;63171;50.520;30.486;2024-02-15T01:29:42;100612.31;;;5.87;100.00
45253;BME280;63171;50.520;30.486;2024-02-15T01:30:32;100613.06;;;5.92;100.00
45253;BME280;63171;50.520;30.486;2024-02-15T01:31:21;100617.31;;;5.95;100.00
45253;BME280;63171;50.520;30.486;2024-02-15T01:32:12;100607.88;;;5.92;100.00
45253;BME280;63171;50.520;30.486;2024-02-15T01:33:03;100608.69;;;5.94;100.00
45253;BME280;63171;50.520;30.486;2024-02-15T01:33:54;100613.72;;;5.99;100.00
45253;BME280;63171;50.520;30.486;2024-02-15T01:34:45;100607.56;;;6.03;100.00
45253;BME280;63171;50.520;30.486;2024-02-15T01:35:35;100620.59;;;6.01;100.00
45253;BME280;63171;50.520;30.486;2024-02-15T01:36:25;100615.19;;;6.07;100.00
45253;BME280;63171;50.520;30.486;2024-02-15T01:37:15;100612.13;;;5.95;100.00
45253;BME280;63171;50.520;30.486;2024-02-15T01:38:05;100615.81;;;5.86;100.00
45253;BME280;63171;50.520;30.486;2024-02-15T01:38:55;100613.38;;;5.81;100.00
45253;BME280;63171;50.520;30.486;2024-02-15T01:39:46;100622.97;;;5.79;100.00
45253;BME280;63171;50.520;30.486;2024-02-15T01:40:36;100609.03;;;5.82;100.00
45253;BME280;63171;50.520;30.486;2024-02-15T01:41:26;100612.41;;;5.84;100.00
45253;BME280;63171;50.520;30.486;2024-02-15T01:42:16;100611.72;;;5.79;100.00
45253;BME280;63171;50.520;30.486;2024-02-15T01:43:07;100616.19;;;5.74;100.00
45253;BME280;63171;50.520;30.486;2024-02-15T01:43:57;100615.44;;;5.70;100.00
45253;BME280;63171;50.520;30.486;2024-02-15T01:44:46;100621.44;;;5.72;100.00
45253;BME280;63171;50.520;30.486;2024-02-15T01:45:38;100610.97;;;5.75;100.00
45253;BME280;63171;50.520;30.486;2024-02-15T01:46:28;100613.53;;;5.77;100.00
45253;BME280;63171;50.520;30.486;2024-02-15T01:47:19;100613.41;;;5.80;100.00
45253;BME280;63171;50.520;30.486;2024-02-15T01:48:11;100612.72;;;5.75;100.00
45253;BME280;63171;50.520;30.486;2024-02-15T01:49:02;100610.03;;;5.78;100.00
45253;BME280;63171;50.520;30.486;2024-02-15T01:49:54;100614.41;;;5.76;100.00
45253;BME280;63171;50.520;30.486;2024-02-15T01:50:44;100609.28;;;5.73;100.00
45253;BME280;63171;50.520;30.486;2024-02-15T01:51:35;100613.41;;;5.80;100.00
45253;BME280;63171;50.520;30.486;2024-02-15T01:52:26;100614.38;;;5.77;100.00
45253;BME280;63171;50.520;30.486;2024-02-15T01:53:16;100611.13;;;5.69;100.00
45253;BME280;63171;50.520;30.486;2024-02-15T01:54:07;100613.41;;;5.80;100.00
45253;BME280;63171;50.520;30.486;2024-02-15T01:54:59;100611.63;;;5.82;100.00
45253;BME280;63171;50.520;30.486;2024-02-15T01:55:49;100616.72;;;5.85;100.00
45253;BME280;63171;50.520;30.486;2024-02-15T01:56:41;100608.38;;;5.75;100.00
45253;BME280;63171;50.520;30.486;2024-02-15T01:57:33;100613.69;;;5.71;100.00
45253;BME280;63171;50.520;30.486;2024-02-15T01:58:23;100618.88;;;5.71;100.00
45253;BME280;63171;50.520;30.486;2024-02-15T01:59:15;100611.13;;;5.69;100.00
45253;BME280;63171;50.520;30.486;2024-02-15T02:00:07;100619.03;;;5.66;100.00
45253;BME280;63171;50.520;30.486;2024-02-15T02:00:59;100606.22;;;5.60;100.00
45253;BME280;63171;50.520;30.486;2024-02-15T02:01:50;100606.31;;;5.57;100.00
45253;BME280;63171;50.520;30.486;2024-02-15T02:02:41;100606.50;;;5.51;100.00
45253;BME280;63171;50.520;30.486;2024-02-15T02:03:31;100611.50;;;5.57;100.00
45253;BME280;63171;50.520;30.486;2024-02-15T02:04:23;100613.25;;;5.56;100.00
45253;BME280;63171;50.520;30.486;2024-02-15T02:05:13;100604.84;;;5.48;100.00
45253;BME280;63171;50.520;30.486;2024-02-15T02:06:03;100610.84;;;5.50;100.00
45253;BME280;63171;50.520;30.486;2024-02-15T02:06:54;100609.09;;;5.51;100.00
45253;BME280;63171;50.520;30.486;2024-02-15T02:07:48;100611.75;;;5.49;100.00
45253;BME280;63171;50.520;30.486;2024-02-15T02:08:38;100617.56;;;5.57;100.00
45253;BME280;63171;50.520;30.486;2024-02-15T02:09:28;100615.75;;;5.59;100.00
45253;BME280;63171;50.520;30.486;2024-02-15T02:10:19;100614.78;;;5.63;100.00
45253;BME280;63171;50.520;30.486;2024-02-15T02:11:09;100618.66;;;5.50;100.00
45253;BME280;63171;50.520;30.486;2024-02-15T02:11:59;100617.66;;;5.54;100.00
45253;BME280;63171;50.520;30.486;2024-02-15T02:12:50;100610.91;;;5.47;100.00
45253;BME280;63171;50.520;30.486;2024-02-15T02:13:40;100617.00;;;5.48;100.00
45253;BME280;63171;50.520;30.486;2024-02-15T02:14:30;100613.41;;;5.52;100.00
45253;BME280;63171;50.520;30.486;2024-02-15T02:15:21;100613.25;;;5.56;100.00
45253;BME280;63171;50.520;30.486;2024-02-15T02:16:26;100614.94;;;5.57;100.00
45253;BME280;63171;50.520;30.486;2024-02-15T02:17:16;100606.56;;;5.49;100.00
45253;BME280;63171;50.520;30.486;2024-02-15T02:18:09;100609.06;;;5.52;100.00
45253;BME280;63171;50.520;30.486;2024-02-15T02:19:00;100609.63;;;5.62;100.00
45253;BME280;63171;50.520;30.486;2024-02-15T02:19:51;100609.75;;;5.57;100.00
45253;BME280;63171;50.520;30.486;2024-02-15T02:20:42;100617.28;;;5.67;100.00
45253;BME280;63171;50.520;30.486;2024-02-15T02:21:32;100609.66;;;5.60;100.00
45253;BME280;63171;50.520;30.486;2024-02-15T02:22:24;100613.13;;;5.61;100.00
45253;BME280;63171;50.520;30.486;2024-02-15T02:23:15;100614.78;;;5.63;100.00
45253;BME280;63171;50.520;30.486;2024-02-15T02:24:13;100614.84;;;5.62;100.00
45253;BME280;63171;50.520;30.486;2024-02-15T02:25:06;100608.81;;;5.60;100.00
45253;BME280;63171;50.520;30.486;2024-02-15T02:25:56;100609.91;;;5.53;100.00
45253;BME280;63171;50.520;30.486;2024-02-15T02:26:47;100609.16;;;5.49;100.00
45253;BME280;63171;50.520;30.486;2024-02-15T02:27:37;100607.66;;;5.41;100.00
45253;BME280;63171;50.520;30.486;2024-02-15T02:28:27;100605.78;;;5.46;100.00
45253;BME280;63171;50.520;30.486;2024-02-15T02:29:18;100610.16;;;5.44;100.00
45253;BME280;63171;50.520;30.486;2024-02-15T02:30:13;100607.44;;;5.48;100.00
45253;BME280;63171;50.520;30.486;2024-02-15T02:31:04;100604.72;;;5.53;100.00
45253;BME280;63171;50.520;30.486;2024-02-15T02:31:56;100608.97;;;5.55;100.00
45253;BME280;63171;50.520;30.486;2024-02-15T02:32:47;100610.59;;;5.58;100.00
45253;BME280;63171;50.520;30.486;2024-02-15T02:33:37;100606.31;;;5.57;100.00
45253;BME280;63171;50.520;30.486;2024-02-15T02:34:27;100615.25;;;5.47;100.00
45253;BME280;63171;50.520;30.486;2024-02-15T02:35:17;100613.81;;;5.38;100.00
45253;BME280;63171;50.520;30.486;2024-02-15T02:36:10;100606.09;;;5.35;100.00
45253;BME280;63171;50.520;30.486;2024-02-15T02:37:01;100612.59;;;5.19;100.00
45253;BME280;63171;50.520;30.486;2024-02-15T02:37:58;100608.25;;;5.19;100.00
45253;BME280;63171;50.520;30.486;2024-02-15T02:38:48;100603.91;;;5.20;100.00
45253;BME280;63171;50.520;30.486;2024-02-15T02:39:39;100606.47;;;5.23;100.00
45253;BME280;63171;50.520;30.486;2024-02-15T02:40:31;100612.44;;;5.25;100.00
45253;BME280;63171;50.520;30.486;2024-02-15T02:41:21;100612.50;;;5.23;100.00
45253;BME280;63171;50.520;30.486;2024-02-15T02:42:13;100614.31;;;5.20;100.00
45253;BME280;63171;50.520;30.486;2024-02-15T02:43:03;100612.69;;;5.16;100.00
45253;BME280;63171;50.520;30.486;2024-02-15T02:43:55;100609.97;;;5.20;100.00
45253;BME280;63171;50.520;30.486;2024-02-15T02:44:45;100615.91;;;5.25;100.00
45253;BME280;63171;50.520;30.486;2024-02-15T02:45:34;100615.75;;;5.30;100.00
45253;BME280;63171;50.520;30.486;2024-02-15T02:46:25;100608.81;;;5.30;100.00
45253;BME280;63171;50.520;30.486;2024-02-15T02:47:15;100613.25;;;5.27;100.00
45253;BME280;63171;50.520;30.486;2024-02-15T02:48:06;100617.69;;;5.23;100.00
45253;BME280;63171;50.520;30.486;2024-02-15T02:48:57;100613.91;;;5.33;100.00
45253;BME280;63171;50.520;30.486;2024-02-15T02:49:46;100618.91;;;5.41;100.00
45253;BME280;63171;50.520;30.486;2024-02-15T02:50:36;100619.94;;;5.36;100.00
45253;BME280;63171;50.520;30.486;2024-02-15T02:51:27;100620.94;;;5.30;100.00
45253;BME280;63171;50.520;30.486;2024-02-15T02:52:17;100617.47;;;5.31;100.00
45253;BME280;63171;50.520;30.486;2024-02-15T02:53:07;100613.81;;;5.38;100.00
45253;BME280;63171;50.520;30.486;2024-02-15T02:54:00;100613.75;;;5.40;100.00
45253;BME280;63171;50.520;30.486;2024-02-15T02:54:50;100624.09;;;5.41;100.00
45253;BME280;63171;50.520;30.486;2024-02-15T02:55:43;100623.28;;;5.39;100.00
45253;BME280;63171;50.520;30.486;2024-02-15T02:56:32;100627.69;;;5.37;100.00
45253;BME280;63171;50.520;30.486;2024-02-15T02:57:23;100624.81;;;5.46;100.00
45253;BME280;63171;50.520;30.486;2024-02-15T02:58:14;100619.59;;;5.46;100.00
45253;BME280;63171;50.520;30.486;2024-02-15T02:59:04;100630.16;;;5.42;100.00
45253;BME280;63171;50.520;30.486;2024-02-15T02:59:54;100629.28;;;5.41;100.00
45253;BME280;63171;50.520;30.486;2024-02-15T03:00:44;100628.44;;;5.41;100.00
45253;BME280;63171;50.520;30.486;2024-02-15T03:01:35;100628.53;;;5.38;100.00
45253;BME280;63171;50.520;30.486;2024-02-15T03:02:25;100629.25;;;5.43;100.00
45253;BME280;63171;50.520;30.486;2024-02-15T03:03:16;100634.34;;;5.46;100.00
45253;BME280;63171;50.520;30.486;2024-02-15T03:04:05;100628.25;;;5.47;100.00
45253;BME280;63171;50.520;30.486;2024-02-15T03:04:56;100629.69;;;5.57;100.00
45253;BME280;63171;50.520;30.486;2024-02-15T03:05:49;100635.00;;;5.54;100.00
45253;BME280;63171;50.520;30.486;2024-02-15T03:06:39;100632.19;;;5.60;100.00
45253;BME280;63171;50.520;30.486;2024-02-15T03:07:32;100631.38;;;5.58;100.00
45253;BME280;63171;50.520;30.486;2024-02-15T03:08:22;100635.78;;;5.56;100.00
45253;BME280;63171;50.520;30.486;2024-02-15T03:09:13;100637.53;;;5.55;100.00
45253;BME280;63171;50.520;30.486;2024-02-15T03:10:04;100631.53;;;5.53;100.00
45253;BME280;63171;50.520;30.486;2024-02-15T03:10:58;100637.53;;;5.55;100.00
45253;BME280;63171;50.520;30.486;2024-02-15T03:11:49;100638.34;;;5.57;100.00
45253;BME280;63171;50.520;30.486;2024-02-15T03:12:39;100643.59;;;5.56;100.00
45253;BME280;63171;50.520;30.486;2024-02-15T03:13:29;100641.25;;;5.47;100.00
45253;BME280;63171;50.520;30.486;2024-02-15T03:14:20;100648.97;;;5.50;100.00
45253;BME280;63171;50.520;30.486;2024-02-15T03:15:10;100635.38;;;5.40;100.00
45253;BME280;63171;50.520;30.486;2024-02-15T03:16:01;100635.44;;;5.39;100.00
45253;BME280;63171;50.520;30.486;2024-02-15T03:16:51;100645.94;;;5.34;100.00
45253;BME280;63171;50.520;30.486;2024-02-15T03:17:42;100643.28;;;5.37;100.00
45253;BME280;63171;50.520;30.486;2024-02-15T03:18:38;100641.22;;;5.48;100.00
45253;BME280;63171;50.520;30.486;2024-02-15T03:19:27;100643.81;;;5.48;100.00
45253;BME280;63171;50.520;30.486;2024-02-15T03:20:17;100642.97;;;5.48;100.00
45253;BME280;63171;50.520;30.486;2024-02-15T03:21:11;100639.88;;;5.33;100.00
45253;BME280;63171;50.520;30.486;2024-02-15T03:22:01;100642.53;;;5.32;100.00
45253;BME280;63171;50.520;30.486;2024-02-15T03:22:52;100644.38;;;5.28;100.00
45253;BME280;63171;50.520;30.486;2024-02-15T03:23:43;100646.88;;;5.31;100.00
45253;BME280;63171;50.520;30.486;2024-02-15T03:24:33;100646.06;;;5.29;100.00
45253;BME280;63171;50.520;30.486;2024-02-15T03:25:23;100647.03;;;5.27;100.00
45253;BME280;63171;50.520;30.486;2024-02-15T03:26:15;100644.41;;;5.27;100.00
45253;BME280;63171;50.520;30.486;2024-02-15T03:27:05;100648.72;;;5.28;100.00
45253;BME280;63171;50.520;30.486;2024-02-15T03:27:56;100645.94;;;5.34;100.00
45253;BME280;63171;50.520;30.486;2024-02-15T03:28:47;100648.56;;;5.32;100.00
45253;BME280;63171;50.520;30.486;2024-02-15T03:29:37;100649.53;;;5.30;100.00
45253;BME280;63171;50.520;30.486;2024-02-15T03:30:27;100650.59;;;5.23;100.00
45253;BME280;63171;50.520;30.486;2024-02-15T03:31:20;100651.56;;;5.19;100.00
45253;BME280;63171;50.520;30.486;2024-02-15T03:32:10;100655.84;;;5.20;100.00
45253;BME280;63171;50.520;30.486;2024-02-15T03:33:00;100654.19;;;5.17;100.00
45253;BME280;63171;50.520;30.486;2024-02-15T03:33:52;100660.25;;;5.18;100.00
45253;BME280;63171;50.520;30.486;2024-02-15T03:34:42;100653.34;;;5.17;100.00
45253;BME280;63171;50.520;30.486;2024-02-15T03:35:31;100647.16;;;5.22;100.00
45253;BME280;63171;50.520;30.486;2024-02-15T03:36:22;100653.63;;;5.06;100.00
45253;BME280;63171;50.520;30.486;2024-02-15T03:37:12;100652.75;;;5.07;100.00
45253;BME280;63171;50.520;30.486;2024-02-15T03:38:02;100660.28;;;5.16;100.00
45253;BME280;63171;50.520;30.486;2024-02-15T03:38:53;100659.31;;;5.20;100.00
45253;BME280;63171;50.520;30.486;2024-02-15T03:39:43;100663.78;;;5.15;100.00
45253;BME280;63171;50.520;30.486;2024-02-15T03:40:33;100661.13;;;5.17;100.00
45253;BME280;63171;50.520;30.486;2024-02-15T03:41:27;100666.34;;;5.17;100.00
45253;BME280;63171;50.520;30.486;2024-02-15T03:42:17;100661.94;;;5.19;100.00
45253;BME280;63171;50.520;30.486;2024-02-15T03:43:08;100672.38;;;5.17;100.00
45253;BME280;63171;50.520;30.486;2024-02-15T03:43:58;100661.88;;;5.22;100.00
45253;BME280;63171;50.520;30.486;2024-02-15T03:44:49;100663.78;;;5.15;100.00
45253;BME280;63171;50.520;30.486;2024-02-15T03:45:40;100663.03;;;5.12;100.00
45253;BME280;63171;50.520;30.486;2024-02-15T03:46:31;100676.75;;;5.15;100.00
45253;BME280;63171;50.520;30.486;2024-02-15T03:47:21;100672.97;;;5.27;100.00
45253;BME280;63171;50.520;30.486;2024-02-15T03:48:11;100668.59;;;5.29;100.00
45253;BME280;63171;50.520;30.486;2024-02-15T03:49:01;100670.94;;;5.38;100.00
45253;BME280;63171;50.520;30.486;2024-02-15T03:49:52;100669.97;;;5.42;100.00
45253;BME280;63171;50.520;30.486;2024-02-15T03:50:41;100670.75;;;5.44;100.00
45253;BME280;63171;50.520;30.486;2024-02-15T03:51:31;100670.06;;;5.39;100.00
45253;BME280;63171;50.520;30.486;2024-02-15T03:52:22;100670.72;;;5.46;100.00
45253;BME280;63171;50.520;30.486;2024-02-15T03:53:12;100670.50;;;5.53;100.00
45253;BME280;63171;50.520;30.486;2024-02-15T03:54:03;100676.66;;;5.51;100.00
45253;BME280;63171;50.520;30.486;2024-02-15T03:54:54;100679.34;;;5.48;100.00
45253;BME280;63171;50.520;30.486;2024-02-15T03:55:44;100678.41;;;5.50;100.00
45253;BME280;63171;50.520;30.486;2024-02-15T03:56:36;100672.34;;;5.50;100.00
45253;BME280;63171;50.520;30.486;2024-02-15T03:57:26;100676.69;;;5.49;100.00
45253;BME280;63171;50.520;30.486;2024-02-15T03:58:17;100673.44;;;5.41;100.00
45253;BME280;63171;50.520;30.486;2024-02-15T03:59:09;100677.69;;;5.44;100.00
45253;BME280;63171;50.520;30.486;2024-02-15T03:59:58;100674.34;;;5.40;100.00
45253;BME280;63171;50.520;30.486;2024-02-15T04:00:48;100675.25;;;5.39;100.00
45253;BME280;63171;50.520;30.486;2024-02-15T04:01:39;100672.81;;;5.33;100.00
45253;BME280;63171;50.520;30.486;2024-02-15T04:02:29;100669.59;;;5.25;100.00
45253;BME280;63171;50.520;30.486;2024-02-15T04:03:19;100673.97;;;5.23;100.00
45253;BME280;63171;50.520;30.486;2024-02-15T04:04:10;100675.69;;;5.24;100.00
45253;BME280;63171;50.520;30.486;2024-02-15T04:05:00;100677.53;;;5.19;100.00
45253;BME280;63171;50.520;30.486;2024-02-15T04:05:50;100685.41;;;5.16;100.00
45253;BME280;63171;50.520;30.486;2024-02-15T04:06:42;100682.75;;;5.17;100.00
45253;BME280;63171;50.520;30.486;2024-02-15T04:07:32;100685.63;;;5.07;100.00
45253;BME280;63171;50.520;30.486;2024-02-15T04:08:23;100681.00;;;5.18;100.00
45253;BME280;63171;50.520;30.486;2024-02-15T04:09:12;100682.56;;;5.25;100.00
45253;BME280;63171;50.520;30.486;2024-02-15T04:10:04;100687.59;;;5.31;100.00
45253;BME280;63171;50.520;30.486;2024-02-15T04:10:56;100687.50;;;5.34;100.00
45253;BME280;63171;50.520;30.486;2024-02-15T04:11:48;100686.06;;;5.24;100.00
45253;BME280;63171;50.520;30.486;2024-02-15T04:12:42;100686.06;;;5.24;100.00
45253;BME280;63171;50.520;30.486;2024-02-15T04:13:32;100684.28;;;5.26;100.00
45253;BME280;63171;50.520;30.486;2024-02-15T04:14:21;100686.16;;;5.21;100.00
45253;BME280;63171;50.520;30.486;2024-02-15T04:15:14;100693.84;;;5.24;100.00
45253;BME280;63171;50.520;30.486;2024-02-15T04:16:07;100695.59;;;5.23;100.00
45253;BME280;63171;50.520;30.486;2024-02-15T04:16:58;100702.44;;;5.26;100.00
45253;BME280;63171;50.520;30.486;2024-02-15T04:17:48;100692.00;;;5.27;100.00
45253;BME280;63171;50.520;30.486;2024-02-15T04:18:38;100694.56;;;5.29;100.00
45253;BME280;63171;50.520;30.486;2024-02-15T04:19:28;100697.25;;;5.26;100.00
45253;BME280;63171;50.520;30.486;2024-02-15T04:20:18;100695.22;;;5.37;100.00
45253;BME280;63171;50.520;30.486;2024-02-15T04:21:09;100693.28;;;5.44;100.00
45253;BME280;63171;50.520;30.486;2024-02-15T04:21:59;100684.56;;;5.46;100.00
45253;BME280;63171;50.520;30.486;2024-02-15T04:22:49;100696.53;;;5.52;100.00
45253;BME280;63171;50.520;30.486;2024-02-15T04:23:40;100699.09;;;5.53;100.00
45253;BME280;63171;50.520;30.486;2024-02-15T04:24:30;100698.34;;;5.50;100.00